sensor_id;sensor_type;location;lat;lon;timestamp;P1;durP1;ratioP1;P2;durP2;ratioP2
55728;SDS011;41633;39.720;2.910;2022-10-15T00:03:24;25.33;;;17.15;;
55728;SDS011;41633;39.720;2.910;2022-10-15T00:08:16;22.65;;;14.85;;
55728;SDS011;41633;39.720;2.910;2022-10-15T00:13:08;17.77;;;11.02;;
55728;SDS011;41633;39.720;2.910;2022-10-15T00:18:01;15.73;;;7.93;;
55728;SDS011;41633;39.720;2.910;2022-10-15T00:22:53;12.68;;;6.10;;
55728;SDS011;41633;39.720;2.910;2022-10-15T00:27:45;11.15;;;5.45;;
55728;SDS011;41633;39.720;2.910;2022-10-15T00:32:37;12.88;;;5.30;;
55728;SDS011;41633;39.720;2.910;2022-10-15T00:35:03;9.93;;;5.15;;
55728;SDS011;41633;39.720;2.910;2022-10-15T00:37:30;13.45;;;5.00;;
55728;SDS011;41633;39.720;2.910;2022-10-15T00:42:22;13.15;;;5.18;;
55728;SDS011;41633;39.720;2.910;2022-10-15T00:44:50;11.27;;;5.55;;
55728;SDS011;41633;39.720;2.910;2022-10-15T00:47:24;10.50;;;5.20;;
55728;SDS011;41633;39.720;2.910;2022-10-15T00:49:58;12.73;;;5.40;;
55728;SDS011;41633;39.720;2.910;2022-10-15T00:52:29;10.52;;;4.85;;
55728;SDS011;41633;39.720;2.910;2022-10-15T00:57:42;9.93;;;4.75;;
55728;SDS011;41633;39.720;2.910;2022-10-15T01:00:10;10.40;;;4.50;;
55728;SDS011;41633;39.720;2.910;2022-10-15T01:02:36;9.50;;;4.25;;
55728;SDS011;41633;39.720;2.910;2022-10-15T01:07:28;8.43;;;3.65;;
55728;SDS011;41633;39.720;2.910;2022-10-15T01:15:08;8.50;;;3.28;;
55728;SDS011;41633;39.720;2.910;2022-10-15T01:17:40;8.20;;;2.83;;
55728;SDS011;41633;39.720;2.910;2022-10-15T01:27:55;7.20;;;2.50;;
55728;SDS011;41633;39.720;2.910;2022-10-15T01:32:58;9.52;;;2.60;;
55728;SDS011;41633;39.720;2.910;2022-10-15T01:40:59;6.60;;;2.22;;
55728;SDS011;41633;39.720;2.910;2022-10-15T01:43:34;7.85;;;2.08;;
55728;SDS011;41633;39.720;2.910;2022-10-15T01:46:04;7.07;;;2.35;;
55728;SDS011;41633;39.720;2.910;2022-10-15T01:48:31;9.48;;;2.13;;
55728;SDS011;41633;39.720;2.910;2022-10-15T01:50:59;6.82;;;2.05;;
55728;SDS011;41633;39.720;2.910;2022-10-15T01:53:27;9.93;;;2.38;;
55728;SDS011;41633;39.720;2.910;2022-10-15T01:55:55;9.65;;;2.50;;
55728;SDS011;41633;39.720;2.910;2022-10-15T01:58:23;7.20;;;2.42;;
55728;SDS011;41633;39.720;2.910;2022-10-15T02:00:50;6.60;;;2.33;;
55728;SDS011;41633;39.720;2.910;2022-10-15T02:03:16;9.32;;;2.63;;
55728;SDS011;41633;39.720;2.910;2022-10-15T02:08:18;9.32;;;2.88;;
55728;SDS011;41633;39.720;2.910;2022-10-15T02:10:56;8.23;;;2.45;;
55728;SDS011;41633;39.720;2.910;2022-10-15T02:18:45;8.57;;;3.10;;
55728;SDS011;41633;39.720;2.910;2022-10-15T02:21:16;9.43;;;3.10;;
55728;SDS011;41633;39.720;2.910;2022-10-15T02:23:49;6.97;;;2.80;;
55728;SDS011;41633;39.720;2.910;2022-10-15T02:26:17;8.80;;;3.15;;
55728;SDS011;41633;39.720;2.910;2022-10-15T02:28:45;9.98;;;3.22;;
55728;SDS011;41633;39.720;2.910;2022-10-15T02:31:15;7.60;;;3.05;;
55728;SDS011;41633;39.720;2.910;2022-10-15T02:33:41;8.80;;;3.05;;
55728;SDS011;41633;39.720;2.910;2022-10-15T02:36:09;8.23;;;3.10;;
55728;SDS011;41633;39.720;2.910;2022-10-15T02:38:35;8.07;;;3.22;;
55728;SDS011;41633;39.720;2.910;2022-10-15T02:41:02;9.10;;;3.25;;
55728;SDS011;41633;39.720;2.910;2022-10-15T02:43:29;9.75;;;3.30;;
55728;SDS011;41633;39.720;2.910;2022-10-15T02:45:55;8.55;;;3.10;;
55728;SDS011;41633;39.720;2.910;2022-10-15T02:48:21;8.82;;;3.58;;
55728;SDS011;41633;39.720;2.910;2022-10-15T02:53:13;10.43;;;3.40;;
55728;SDS011;41633;39.720;2.910;2022-10-15T02:58:05;7.55;;;3.30;;
55728;SDS011;41633;39.720;2.910;2022-10-15T03:02:57;9.90;;;3.75;;
55728;SDS011;41633;39.720;2.910;2022-10-15T03:07:49;11.75;;;3.45;;
55728;SDS011;41633;39.720;2.910;2022-10-15T03:12:41;9.68;;;3.40;;
55728;SDS011;41633;39.720;2.910;2022-10-15T03:17:34;9.38;;;3.00;;
55728;SDS011;41633;39.720;2.910;2022-10-15T03:20:00;8.20;;;3.10;;
55728;SDS011;41633;39.720;2.910;2022-10-15T03:24:52;8.57;;;3.22;;
55728;SDS011;41633;39.720;2.910;2022-10-15T03:27:18;10.48;;;3.38;;
55728;SDS011;41633;39.720;2.910;2022-10-15T03:32:10;8.27;;;3.00;;
55728;SDS011;41633;39.720;2.910;2022-10-15T03:34:36;9.70;;;3.67;;
55728;SDS011;41633;39.720;2.910;2022-10-15T03:39:28;12.10;;;3.63;;
55728;SDS011;41633;39.720;2.910;2022-10-15T03:44:20;9.35;;;3.67;;
55728;SDS011;41633;39.720;2.910;2022-10-15T03:49:12;10.30;;;3.78;;
55728;SDS011;41633;39.720;2.910;2022-10-15T03:51:38;11.65;;;4.35;;
55728;SDS011;41633;39.720;2.910;2022-10-15T03:56:30;11.27;;;4.00;;
55728;SDS011;41633;39.720;2.910;2022-10-15T03:58:56;13.07;;;4.38;;
55728;SDS011;41633;39.720;2.910;2022-10-15T04:01:23;10.38;;;4.35;;
55728;SDS011;41633;39.720;2.910;2022-10-15T04:03:52;9.15;;;3.97;;
55728;SDS011;41633;39.720;2.910;2022-10-15T04:06:18;9.80;;;3.92;;
55728;SDS011;41633;39.720;2.910;2022-10-15T04:08:45;9.70;;;4.13;;
55728;SDS011;41633;39.720;2.910;2022-10-15T04:11:11;10.93;;;4.20;;
55728;SDS011;41633;39.720;2.910;2022-10-15T04:13:37;10.32;;;4.07;;
55728;SDS011;41633;39.720;2.910;2022-10-15T04:16:03;11.75;;;4.50;;
55728;SDS011;41633;39.720;2.910;2022-10-15T04:18:30;11.73;;;3.90;;
55728;SDS011;41633;39.720;2.910;2022-10-15T04:20:59;11.05;;;4.00;;
55728;SDS011;41633;39.720;2.910;2022-10-15T04:23:25;9.32;;;4.28;;
55728;SDS011;41633;39.720;2.910;2022-10-15T04:28:17;9.10;;;3.70;;
55728;SDS011;41633;39.720;2.910;2022-10-15T04:30:43;9.77;;;3.72;;
55728;SDS011;41633;39.720;2.910;2022-10-15T04:33:09;10.32;;;3.85;;
55728;SDS011;41633;39.720;2.910;2022-10-15T04:35:35;8.48;;;3.50;;
55728;SDS011;41633;39.720;2.910;2022-10-15T04:38:02;10.05;;;3.97;;
55728;SDS011;41633;39.720;2.910;2022-10-15T04:42:54;9.10;;;3.65;;
55728;SDS011;41633;39.720;2.910;2022-10-15T04:45:20;10.02;;;3.47;;
55728;SDS011;41633;39.720;2.910;2022-10-15T04:47:46;10.23;;;3.70;;
55728;SDS011;41633;39.720;2.910;2022-10-15T04:52:38;10.55;;;3.45;;
55728;SDS011;41633;39.720;2.910;2022-10-15T04:57:30;9.73;;;3.30;;
55728;SDS011;41633;39.720;2.910;2022-10-15T04:59:56;9.32;;;3.15;;
55728;SDS011;41633;39.720;2.910;2022-10-15T05:02:22;9.60;;;3.33;;
55728;SDS011;41633;39.720;2.910;2022-10-15T05:07:14;11.48;;;3.10;;
55728;SDS011;41633;39.720;2.910;2022-10-15T05:12:06;8.88;;;3.10;;
55728;SDS011;41633;39.720;2.910;2022-10-15T05:14:32;7.70;;;3.40;;
55728;SDS011;41633;39.720;2.910;2022-10-15T05:16:59;8.75;;;3.33;;
55728;SDS011;41633;39.720;2.910;2022-10-15T05:19:25;9.00;;;3.28;;
55728;SDS011;41633;39.720;2.910;2022-10-15T05:24:17;7.97;;;3.03;;
55728;SDS011;41633;39.720;2.910;2022-10-15T05:26:43;8.45;;;3.33;;
55728;SDS011;41633;39.720;2.910;2022-10-15T05:29:10;8.38;;;3.00;;
55728;SDS011;41633;39.720;2.910;2022-10-15T05:34:06;9.60;;;3.38;;
55728;SDS011;41633;39.720;2.910;2022-10-15T05:36:32;7.80;;;3.38;;
55728;SDS011;41633;39.720;2.910;2022-10-15T05:38:59;8.57;;;3.50;;
55728;SDS011;41633;39.720;2.910;2022-10-15T05:41:26;8.85;;;3.00;;
55728;SDS011;41633;39.720;2.910;2022-10-15T05:43:53;10.20;;;2.95;;
55728;SDS011;41633;39.720;2.910;2022-10-15T05:46:19;8.85;;;3.30;;
55728;SDS011;41633;39.720;2.910;2022-10-15T05:51:11;9.77;;;3.22;;
55728;SDS011;41633;39.720;2.910;2022-10-15T05:56:04;8.48;;;3.40;;
55728;SDS011;41633;39.720;2.910;2022-10-15T05:58:32;9.18;;;3.28;;
55728;SDS011;41633;39.720;2.910;2022-10-15T06:00:59;8.45;;;3.20;;
55728;SDS011;41633;39.720;2.910;2022-10-15T06:03:26;9.50;;;3.70;;
55728;SDS011;41633;39.720;2.910;2022-10-15T06:05:52;9.68;;;3.63;;
55728;SDS011;41633;39.720;2.910;2022-10-15T06:08:18;9.88;;;3.47;;
55728;SDS011;41633;39.720;2.910;2022-10-15T06:10:45;9.82;;;3.10;;
55728;SDS011;41633;39.720;2.910;2022-10-15T06:13:11;10.05;;;3.47;;
55728;SDS011;41633;39.720;2.910;2022-10-15T06:15:38;10.25;;;3.20;;
55728;SDS011;41633;39.720;2.910;2022-10-15T06:18:05;10.90;;;3.25;;
55728;SDS011;41633;39.720;2.910;2022-10-15T06:20:31;10.10;;;3.00;;
55728;SDS011;41633;39.720;2.910;2022-10-15T06:22:57;10.32;;;3.70;;
55728;SDS011;41633;39.720;2.910;2022-10-15T06:25:24;10.90;;;3.25;;
55728;SDS011;41633;39.720;2.910;2022-10-15T06:27:51;9.68;;;3.50;;
55728;SDS011;41633;39.720;2.910;2022-10-15T06:30:17;9.75;;;4.43;;
55728;SDS011;41633;39.720;2.910;2022-10-15T06:32:47;10.82;;;3.50;;
55728;SDS011;41633;39.720;2.910;2022-10-15T06:35:14;11.23;;;3.55;;
55728;SDS011;41633;39.720;2.910;2022-10-15T06:37:40;10.38;;;3.53;;
55728;SDS011;41633;39.720;2.910;2022-10-15T06:40:06;9.00;;;3.38;;
55728;SDS011;41633;39.720;2.910;2022-10-15T06:42:33;10.85;;;3.70;;
55728;SDS011;41633;39.720;2.910;2022-10-15T06:44:59;11.13;;;3.75;;
55728;SDS011;41633;39.720;2.910;2022-10-15T06:49:51;13.25;;;6.78;;
55728;SDS011;41633;39.720;2.910;2022-10-15T06:54:43;17.35;;;8.95;;
55728;SDS011;41633;39.720;2.910;2022-10-15T06:59:35;23.95;;;13.98;;
55728;SDS011;41633;39.720;2.910;2022-10-15T07:02:01;26.02;;;11.85;;
55728;SDS011;41633;39.720;2.910;2022-10-15T07:04:27;21.70;;;11.02;;
55728;SDS011;41633;39.720;2.910;2022-10-15T07:09:19;20.08;;;9.80;;
55728;SDS011;41633;39.720;2.910;2022-10-15T07:14:11;19.73;;;7.32;;
55728;SDS011;41633;39.720;2.910;2022-10-15T07:19:04;21.13;;;9.55;;
55728;SDS011;41633;39.720;2.910;2022-10-15T07:21:30;18.05;;;9.70;;
55728;SDS011;41633;39.720;2.910;2022-10-15T07:23:56;19.67;;;9.85;;
55728;SDS011;41633;39.720;2.910;2022-10-15T07:26:23;23.10;;;10.45;;
55728;SDS011;41633;39.720;2.910;2022-10-15T07:31:15;20.73;;;10.27;;
55728;SDS011;41633;39.720;2.910;2022-10-15T07:33:41;19.27;;;10.25;;
55728;SDS011;41633;39.720;2.910;2022-10-15T07:36:09;21.75;;;10.50;;
55728;SDS011;41633;39.720;2.910;2022-10-15T07:38:36;20.08;;;9.88;;
55728;SDS011;41633;39.720;2.910;2022-10-15T07:41:04;18.48;;;8.77;;
55728;SDS011;41633;39.720;2.910;2022-10-15T07:43:32;16.38;;;7.88;;
55728;SDS011;41633;39.720;2.910;2022-10-15T07:45:58;13.65;;;6.20;;
55728;SDS011;41633;39.720;2.910;2022-10-15T07:48:24;13.07;;;5.05;;
55728;SDS011;41633;39.720;2.910;2022-10-15T07:50:54;16.95;;;5.47;;
55728;SDS011;41633;39.720;2.910;2022-10-15T07:53:20;13.10;;;5.35;;
55728;SDS011;41633;39.720;2.910;2022-10-15T07:55:46;14.52;;;5.90;;
55728;SDS011;41633;39.720;2.910;2022-10-15T08:00:38;21.25;;;13.75;;
55728;SDS011;41633;39.720;2.910;2022-10-15T08:03:04;19.15;;;9.57;;
55728;SDS011;41633;39.720;2.910;2022-10-15T08:07:56;15.80;;;7.05;;
55728;SDS011;41633;39.720;2.910;2022-10-15T08:10:23;13.20;;;5.88;;
55728;SDS011;41633;39.720;2.910;2022-10-15T08:12:49;16.40;;;5.18;;
55728;SDS011;41633;39.720;2.910;2022-10-15T08:15:15;21.73;;;8.30;;
55728;SDS011;41633;39.720;2.910;2022-10-15T08:17:44;22.55;;;10.82;;
55728;SDS011;41633;39.720;2.910;2022-10-15T08:20:11;31.00;;;19.60;;
55728;SDS011;41633;39.720;2.910;2022-10-15T08:22:37;29.60;;;19.17;;
55728;SDS011;41633;39.720;2.910;2022-10-15T08:25:03;26.63;;;14.90;;
55728;SDS011;41633;39.720;2.910;2022-10-15T08:27:29;19.20;;;11.57;;
55728;SDS011;41633;39.720;2.910;2022-10-15T08:29:55;18.80;;;9.65;;
55728;SDS011;41633;39.720;2.910;2022-10-15T08:32:21;16.27;;;7.50;;
55728;SDS011;41633;39.720;2.910;2022-10-15T08:34:48;21.52;;;7.07;;
55728;SDS011;41633;39.720;2.910;2022-10-15T08:37:14;18.00;;;7.20;;
55728;SDS011;41633;39.720;2.910;2022-10-15T08:39:40;17.30;;;9.23;;
55728;SDS011;41633;39.720;2.910;2022-10-15T08:42:10;20.27;;;9.35;;
55728;SDS011;41633;39.720;2.910;2022-10-15T08:45:13;17.63;;;8.07;;
55728;SDS011;41633;39.720;2.910;2022-10-15T08:52:52;13.60;;;5.28;;
55728;SDS011;41633;39.720;2.910;2022-10-15T08:55:19;16.23;;;5.88;;
55728;SDS011;41633;39.720;2.910;2022-10-15T08:57:53;15.68;;;6.40;;
55728;SDS011;41633;39.720;2.910;2022-10-15T09:00:22;12.38;;;5.40;;
55728;SDS011;41633;39.720;2.910;2022-10-15T09:02:51;14.50;;;5.60;;
55728;SDS011;41633;39.720;2.910;2022-10-15T09:05:28;16.67;;;6.45;;
55728;SDS011;41633;39.720;2.910;2022-10-15T09:10:45;13.82;;;6.00;;
55728;SDS011;41633;39.720;2.910;2022-10-15T09:16:13;14.70;;;5.55;;
55728;SDS011;41633;39.720;2.910;2022-10-15T09:18:32;15.10;;;6.10;;
55728;SDS011;41633;39.720;2.910;2022-10-15T09:20:59;14.98;;;6.22;;
55728;SDS011;41633;39.720;2.910;2022-10-15T09:23:27;13.15;;;5.75;;
55728;SDS011;41633;39.720;2.910;2022-10-15T09:28:26;16.63;;;6.28;;
55728;SDS011;41633;39.720;2.910;2022-10-15T09:30:55;14.73;;;6.00;;
55728;SDS011;41633;39.720;2.910;2022-10-15T09:33:30;13.55;;;5.75;;
55728;SDS011;41633;39.720;2.910;2022-10-15T09:36:11;14.48;;;4.53;;
55728;SDS011;41633;39.720;2.910;2022-10-15T09:43:33;11.65;;;4.10;;
55728;SDS011;41633;39.720;2.910;2022-10-15T09:46:01;9.95;;;3.40;;
55728;SDS011;41633;39.720;2.910;2022-10-15T09:48:29;12.93;;;2.97;;
55728;SDS011;41633;39.720;2.910;2022-10-15T09:53:28;9.77;;;3.72;;
55728;SDS011;41633;39.720;2.910;2022-10-15T09:58:29;10.85;;;4.30;;
55728;SDS011;41633;39.720;2.910;2022-10-15T10:00:59;11.40;;;4.60;;
55728;SDS011;41633;39.720;2.910;2022-10-15T10:03:26;15.80;;;5.95;;
55728;SDS011;41633;39.720;2.910;2022-10-15T10:05:57;19.73;;;7.60;;
55728;SDS011;41633;39.720;2.910;2022-10-15T10:08:24;14.63;;;4.88;;
55728;SDS011;41633;39.720;2.910;2022-10-15T10:10:53;11.32;;;3.70;;
55728;SDS011;41633;39.720;2.910;2022-10-15T10:13:23;12.60;;;4.30;;
55728;SDS011;41633;39.720;2.910;2022-10-15T10:15:52;11.90;;;3.95;;
55728;SDS011;41633;39.720;2.910;2022-10-15T10:18:20;13.43;;;4.00;;
55728;SDS011;41633;39.720;2.910;2022-10-15T10:20:57;10.70;;;3.40;;
55728;SDS011;41633;39.720;2.910;2022-10-15T10:23:28;11.07;;;3.75;;
55728;SDS011;41633;39.720;2.910;2022-10-15T10:25:56;10.63;;;3.08;;
55728;SDS011;41633;39.720;2.910;2022-10-15T10:28:26;11.57;;;3.88;;
55728;SDS011;41633;39.720;2.910;2022-10-15T10:34:04;11.65;;;3.75;;
55728;SDS011;41633;39.720;2.910;2022-10-15T10:36:06;8.40;;;3.13;;
55728;SDS011;41633;39.720;2.910;2022-10-15T10:38:33;10.18;;;3.20;;
55728;SDS011;41633;39.720;2.910;2022-10-15T10:41:07;9.23;;;2.88;;
55728;SDS011;41633;39.720;2.910;2022-10-15T10:43:40;8.77;;;2.83;;
55728;SDS011;41633;39.720;2.910;2022-10-15T10:46:17;6.50;;;1.98;;
55728;SDS011;41633;39.720;2.910;2022-10-15T10:48:48;8.40;;;1.98;;
55728;SDS011;41633;39.720;2.910;2022-10-15T10:53:43;9.38;;;2.08;;
55728;SDS011;41633;39.720;2.910;2022-10-15T10:56:12;10.13;;;2.00;;
55728;SDS011;41633;39.720;2.910;2022-10-15T10:58:39;5.60;;;1.52;;
55728;SDS011;41633;39.720;2.910;2022-10-15T11:01:08;9.52;;;1.73;;
55728;SDS011;41633;39.720;2.910;2022-10-15T11:03:36;8.75;;;2.20;;
55728;SDS011;41633;39.720;2.910;2022-10-15T11:11:12;9.77;;;1.90;;
55728;SDS011;41633;39.720;2.910;2022-10-15T11:13:51;8.25;;;2.03;;
55728;SDS011;41633;39.720;2.910;2022-10-15T11:16:23;7.70;;;1.80;;
55728;SDS011;41633;39.720;2.910;2022-10-15T11:23:56;9.48;;;1.60;;
55728;SDS011;41633;39.720;2.910;2022-10-15T11:26:29;9.10;;;1.73;;
55728;SDS011;41633;39.720;2.910;2022-10-15T11:47:34;7.68;;;1.92;;
55728;SDS011;41633;39.720;2.910;2022-10-15T11:50:16;9.90;;;1.80;;
55728;SDS011;41633;39.720;2.910;2022-10-15T11:55:27;4.88;;;1.25;;
55728;SDS011;41633;39.720;2.910;2022-10-15T11:57:57;7.13;;;1.70;;
55728;SDS011;41633;39.720;2.910;2022-10-15T12:00:32;7.63;;;1.70;;
55728;SDS011;41633;39.720;2.910;2022-10-15T12:03:44;7.50;;;1.80;;
55728;SDS011;41633;39.720;2.910;2022-10-15T12:05:51;6.60;;;1.63;;
55728;SDS011;41633;39.720;2.910;2022-10-15T12:08:18;8.93;;;1.80;;
55728;SDS011;41633;39.720;2.910;2022-10-15T12:10:50;7.57;;;1.52;;
55728;SDS011;41633;39.720;2.910;2022-10-15T12:16:05;7.82;;;1.85;;
55728;SDS011;41633;39.720;2.910;2022-10-15T12:19:16;9.45;;;1.50;;
55728;SDS011;41633;39.720;2.910;2022-10-15T12:21:30;7.18;;;1.65;;
55728;SDS011;41633;39.720;2.910;2022-10-15T12:23:57;7.57;;;1.70;;
55728;SDS011;41633;39.720;2.910;2022-10-15T12:28:50;8.45;;;1.40;;
55728;SDS011;41633;39.720;2.910;2022-10-15T12:31:17;8.20;;;1.40;;
55728;SDS011;41633;39.720;2.910;2022-10-15T12:33:51;5.70;;;1.27;;
55728;SDS011;41633;39.720;2.910;2022-10-15T12:36:20;6.75;;;1.35;;
55728;SDS011;41633;39.720;2.910;2022-10-15T12:39:00;8.45;;;1.70;;
55728;SDS011;41633;39.720;2.910;2022-10-15T12:41:33;6.47;;;1.88;;
55728;SDS011;41633;39.720;2.910;2022-10-15T12:46:45;7.97;;;1.55;;
55728;SDS011;41633;39.720;2.910;2022-10-15T12:51:56;10.07;;;1.33;;
55728;SDS011;41633;39.720;2.910;2022-10-15T12:54:33;7.00;;;1.40;;
55728;SDS011;41633;39.720;2.910;2022-10-15T12:57:00;6.47;;;1.38;;
55728;SDS011;41633;39.720;2.910;2022-10-15T13:04:55;6.80;;;1.50;;
55728;SDS011;41633;39.720;2.910;2022-10-15T13:07:22;9.38;;;1.52;;
55728;SDS011;41633;39.720;2.910;2022-10-15T13:09:48;7.38;;;1.40;;
55728;SDS011;41633;39.720;2.910;2022-10-15T13:12:32;7.22;;;2.00;;
55728;SDS011;41633;39.720;2.910;2022-10-15T13:15:00;5.78;;;1.77;;
55728;SDS011;41633;39.720;2.910;2022-10-15T13:17:31;7.55;;;1.70;;
55728;SDS011;41633;39.720;2.910;2022-10-15T13:19:58;7.00;;;1.40;;
55728;SDS011;41633;39.720;2.910;2022-10-15T13:22:30;7.00;;;1.55;;
55728;SDS011;41633;39.720;2.910;2022-10-15T13:24:58;7.95;;;1.73;;
55728;SDS011;41633;39.720;2.910;2022-10-15T13:27:34;8.05;;;1.50;;
55728;SDS011;41633;39.720;2.910;2022-10-15T13:30:10;6.40;;;1.67;;
55728;SDS011;41633;39.720;2.910;2022-10-15T13:32:53;6.50;;;1.30;;
55728;SDS011;41633;39.720;2.910;2022-10-15T13:35:30;5.53;;;1.45;;
55728;SDS011;41633;39.720;2.910;2022-10-15T13:37:58;7.55;;;1.60;;
55728;SDS011;41633;39.720;2.910;2022-10-15T13:40:26;6.68;;;1.45;;
55728;SDS011;41633;39.720;2.910;2022-10-15T13:43:12;5.85;;;1.40;;
55728;SDS011;41633;39.720;2.910;2022-10-15T13:45:45;6.68;;;1.25;;
55728;SDS011;41633;39.720;2.910;2022-10-15T13:48:11;5.60;;;1.30;;
55728;SDS011;41633;39.720;2.910;2022-10-15T13:50:38;6.03;;;1.30;;
55728;SDS011;41633;39.720;2.910;2022-10-15T13:55:35;7.38;;;1.50;;
55728;SDS011;41633;39.720;2.910;2022-10-15T14:00:39;5.65;;;1.20;;
55728;SDS011;41633;39.720;2.910;2022-10-15T14:03:13;6.10;;;1.23;;
55728;SDS011;41633;39.720;2.910;2022-10-15T14:05:41;5.53;;;1.23;;
55728;SDS011;41633;39.720;2.910;2022-10-15T14:08:50;7.70;;;2.10;;
55728;SDS011;41633;39.720;2.910;2022-10-15T14:10:57;5.80;;;1.48;;
55728;SDS011;41633;39.720;2.910;2022-10-15T14:13:24;5.72;;;1.30;;
55728;SDS011;41633;39.720;2.910;2022-10-15T14:16:01;4.32;;;1.30;;
55728;SDS011;41633;39.720;2.910;2022-10-15T14:18:38;6.88;;;1.52;;
55728;SDS011;41633;39.720;2.910;2022-10-15T14:21:12;6.78;;;1.48;;
55728;SDS011;41633;39.720;2.910;2022-10-15T14:23:39;7.25;;;1.42;;
55728;SDS011;41633;39.720;2.910;2022-10-15T14:26:07;5.80;;;1.33;;
55728;SDS011;41633;39.720;2.910;2022-10-15T14:28:34;6.65;;;1.30;;
55728;SDS011;41633;39.720;2.910;2022-10-15T14:31:01;8.75;;;1.52;;
55728;SDS011;41633;39.720;2.910;2022-10-15T14:38:44;6.60;;;1.30;;
55728;SDS011;41633;39.720;2.910;2022-10-15T14:41:29;6.65;;;1.50;;
55728;SDS011;41633;39.720;2.910;2022-10-15T14:46:52;5.40;;;1.40;;
55728;SDS011;41633;39.720;2.910;2022-10-15T14:49:30;6.97;;;1.45;;
55728;SDS011;41633;39.720;2.910;2022-10-15T14:52:00;6.40;;;1.53;;
55728;SDS011;41633;39.720;2.910;2022-10-15T14:54:35;6.45;;;1.40;;
55728;SDS011;41633;39.720;2.910;2022-10-15T14:57:03;6.35;;;1.20;;
55728;SDS011;41633;39.720;2.910;2022-10-15T14:59:30;7.50;;;1.48;;
55728;SDS011;41633;39.720;2.910;2022-10-15T15:01:58;6.47;;;1.20;;
55728;SDS011;41633;39.720;2.910;2022-10-15T15:04:31;4.40;;;1.20;;
55728;SDS011;41633;39.720;2.910;2022-10-15T15:06:58;7.38;;;1.55;;
55728;SDS011;41633;39.720;2.910;2022-10-15T15:09:24;8.27;;;1.80;;
55728;SDS011;41633;39.720;2.910;2022-10-15T15:11:50;5.07;;;1.38;;
55728;SDS011;41633;39.720;2.910;2022-10-15T15:14:21;5.22;;;1.27;;
55728;SDS011;41633;39.720;2.910;2022-10-15T15:16:49;8.73;;;1.52;;
55728;SDS011;41633;39.720;2.910;2022-10-15T15:19:15;8.88;;;1.45;;
55728;SDS011;41633;39.720;2.910;2022-10-15T15:21:41;8.18;;;1.60;;
55728;SDS011;41633;39.720;2.910;2022-10-15T15:24:09;9.20;;;1.80;;
55728;SDS011;41633;39.720;2.910;2022-10-15T15:26:36;7.85;;;2.10;;
55728;SDS011;41633;39.720;2.910;2022-10-15T15:29:02;7.50;;;2.05;;
55728;SDS011;41633;39.720;2.910;2022-10-15T15:31:28;6.05;;;1.88;;
55728;SDS011;41633;39.720;2.910;2022-10-15T15:33:57;6.30;;;1.88;;
55728;SDS011;41633;39.720;2.910;2022-10-15T15:36:23;5.63;;;1.52;;
55728;SDS011;41633;39.720;2.910;2022-10-15T15:38:50;6.10;;;1.45;;
55728;SDS011;41633;39.720;2.910;2022-10-15T15:41:21;7.07;;;1.60;;
55728;SDS011;41633;39.720;2.910;2022-10-15T15:43:49;7.38;;;1.55;;
55728;SDS011;41633;39.720;2.910;2022-10-15T15:46:15;7.85;;;1.95;;
55728;SDS011;41633;39.720;2.910;2022-10-15T15:48:41;11.10;;;1.80;;
55728;SDS011;41633;39.720;2.910;2022-10-15T15:51:15;7.88;;;1.92;;
55728;SDS011;41633;39.720;2.910;2022-10-15T15:53:45;8.88;;;3.80;;
55728;SDS011;41633;39.720;2.910;2022-10-15T15:56:14;10.15;;;3.63;;
55728;SDS011;41633;39.720;2.910;2022-10-15T15:58:40;8.05;;;2.40;;
55728;SDS011;41633;39.720;2.910;2022-10-15T16:01:09;7.90;;;1.83;;
55728;SDS011;41633;39.720;2.910;2022-10-15T16:03:35;5.25;;;1.60;;
55728;SDS011;41633;39.720;2.910;2022-10-15T16:06:04;8.70;;;1.58;;
55728;SDS011;41633;39.720;2.910;2022-10-15T16:08:31;5.88;;;1.50;;
55728;SDS011;41633;39.720;2.910;2022-10-15T16:11:01;6.75;;;1.70;;
55728;SDS011;41633;39.720;2.910;2022-10-15T16:13:28;6.45;;;1.60;;
55728;SDS011;41633;39.720;2.910;2022-10-15T16:15:54;6.80;;;1.42;;
55728;SDS011;41633;39.720;2.910;2022-10-15T16:18:20;7.45;;;1.60;;
55728;SDS011;41633;39.720;2.910;2022-10-15T16:20:46;6.55;;;1.50;;
55728;SDS011;41633;39.720;2.910;2022-10-15T16:23:13;9.65;;;2.03;;
55728;SDS011;41633;39.720;2.910;2022-10-15T16:25:39;6.57;;;2.20;;
55728;SDS011;41633;39.720;2.910;2022-10-15T16:28:05;7.20;;;2.17;;
55728;SDS011;41633;39.720;2.910;2022-10-15T16:30:31;8.27;;;2.28;;
55728;SDS011;41633;39.720;2.910;2022-10-15T16:32:57;6.82;;;1.88;;
55728;SDS011;41633;39.720;2.910;2022-10-15T16:35:24;7.10;;;2.10;;
55728;SDS011;41633;39.720;2.910;2022-10-15T16:37:50;7.07;;;1.70;;
55728;SDS011;41633;39.720;2.910;2022-10-15T16:40:20;6.90;;;2.00;;
55728;SDS011;41633;39.720;2.910;2022-10-15T16:42:46;7.85;;;1.70;;
55728;SDS011;41633;39.720;2.910;2022-10-15T16:45:12;6.25;;;1.70;;
55728;SDS011;41633;39.720;2.910;2022-10-15T16:47:38;6.63;;;1.60;;
55728;SDS011;41633;39.720;2.910;2022-10-15T16:50:05;7.72;;;2.00;;
55728;SDS011;41633;39.720;2.910;2022-10-15T16:52:32;9.45;;;2.75;;
55728;SDS011;41633;39.720;2.910;2022-10-15T16:54:58;11.57;;;4.38;;
55728;SDS011;41633;39.720;2.910;2022-10-15T16:57:25;9.77;;;4.43;;
55728;SDS011;41633;39.720;2.910;2022-10-15T16:59:51;13.85;;;5.70;;
55728;SDS011;41633;39.720;2.910;2022-10-15T17:02:17;15.88;;;6.07;;
55728;SDS011;41633;39.720;2.910;2022-10-15T17:04:43;13.98;;;6.55;;
55728;SDS011;41633;39.720;2.910;2022-10-15T17:07:10;14.45;;;6.75;;
55728;SDS011;41633;39.720;2.910;2022-10-15T17:09:36;17.23;;;8.40;;
55728;SDS011;41633;39.720;2.910;2022-10-15T17:12:03;17.50;;;9.68;;
55728;SDS011;41633;39.720;2.910;2022-10-15T17:14:29;19.42;;;7.72;;
55728;SDS011;41633;39.720;2.910;2022-10-15T17:16:55;20.50;;;8.70;;
55728;SDS011;41633;39.720;2.910;2022-10-15T17:19:22;15.98;;;6.68;;
55728;SDS011;41633;39.720;2.910;2022-10-15T17:21:49;15.05;;;5.68;;
55728;SDS011;41633;39.720;2.910;2022-10-15T17:24:16;12.55;;;5.13;;
55728;SDS011;41633;39.720;2.910;2022-10-15T17:26:43;13.27;;;5.32;;
55728;SDS011;41633;39.720;2.910;2022-10-15T17:29:16;16.80;;;7.85;;
55728;SDS011;41633;39.720;2.910;2022-10-15T17:31:44;22.25;;;10.05;;
55728;SDS011;41633;39.720;2.910;2022-10-15T17:34:10;19.08;;;9.30;;
55728;SDS011;41633;39.720;2.910;2022-10-15T17:36:38;17.60;;;9.57;;
55728;SDS011;41633;39.720;2.910;2022-10-15T17:39:07;16.73;;;8.00;;
55728;SDS011;41633;39.720;2.910;2022-10-15T17:41:34;13.38;;;7.10;;
55728;SDS011;41633;39.720;2.910;2022-10-15T17:44:01;15.98;;;7.30;;
55728;SDS011;41633;39.720;2.910;2022-10-15T17:46:28;15.98;;;7.55;;
55728;SDS011;41633;39.720;2.910;2022-10-15T17:48:55;17.75;;;8.15;;
55728;SDS011;41633;39.720;2.910;2022-10-15T17:51:22;19.73;;;8.70;;
55728;SDS011;41633;39.720;2.910;2022-10-15T17:53:49;19.23;;;9.45;;
55728;SDS011;41633;39.720;2.910;2022-10-15T17:56:17;20.90;;;10.45;;
55728;SDS011;41633;39.720;2.910;2022-10-15T17:58:43;21.40;;;11.77;;
55728;SDS011;41633;39.720;2.910;2022-10-15T18:01:13;33.38;;;22.13;;
55728;SDS011;41633;39.720;2.910;2022-10-15T18:03:40;50.05;;;33.53;;
55728;SDS011;41633;39.720;2.910;2022-10-15T18:06:10;38.50;;;24.75;;
55728;SDS011;41633;39.720;2.910;2022-10-15T18:08:36;36.03;;;22.60;;
55728;SDS011;41633;39.720;2.910;2022-10-15T18:11:03;42.22;;;28.48;;
55728;SDS011;41633;39.720;2.910;2022-10-15T18:13:29;46.00;;;32.42;;
55728;SDS011;41633;39.720;2.910;2022-10-15T18:15:55;38.28;;;25.02;;
55728;SDS011;41633;39.720;2.910;2022-10-15T18:18:22;41.15;;;28.77;;
55728;SDS011;41633;39.720;2.910;2022-10-15T18:20:48;34.70;;;21.00;;
55728;SDS011;41633;39.720;2.910;2022-10-15T18:23:14;26.00;;;15.93;;
55728;SDS011;41633;39.720;2.910;2022-10-15T18:25:40;28.08;;;15.98;;